createdAt,value
2022-09-30T00:02:01.232Z,4.10
2022-09-30T00:04:27.826Z,4.00
2022-09-30T00:06:54.370Z,3.87
2022-09-30T00:09:20.958Z,4.10
2022-09-30T00:11:47.569Z,4.50
2022-09-30T00:14:14.151Z,4.20
2022-09-30T00:16:40.789Z,4.07
2022-09-30T00:19:07.295Z,4.47
2022-09-30T00:21:33.809Z,4.47
2022-09-30T00:24:00.302Z,5.03
2022-09-30T00:26:26.839Z,4.83
2022-09-30T00:28:53.344Z,4.37
2022-09-30T00:31:19.929Z,4.87
2022-09-30T00:33:46.546Z,5.33
2022-09-30T00:36:13.061Z,5.57
2022-09-30T00:38:39.589Z,5.07
2022-09-30T00:41:06.121Z,5.40
2022-09-30T00:43:32.663Z,4.87
2022-09-30T00:45:59.206Z,5.73
2022-09-30T00:48:25.758Z,5.30
2022-09-30T00:50:52.263Z,5.47
2022-09-30T00:53:18.773Z,5.30
2022-09-30T00:55:45.421Z,5.60
2022-09-30T00:58:11.902Z,5.53
2022-09-30T01:00:38.534Z,4.90
2022-09-30T01:03:05.147Z,5.77
2022-09-30T01:05:31.685Z,5.47
2022-09-30T01:07:58.153Z,6.10
2022-09-30T01:10:24.672Z,6.13
2022-09-30T01:12:51.246Z,5.93
2022-09-30T01:15:17.798Z,6.07
2022-09-30T01:17:44.266Z,5.47
2022-09-30T01:20:10.938Z,5.73
2022-09-30T01:22:41.890Z,5.73
2022-09-30T01:25:08.794Z,5.70
2022-09-30T01:27:35.305Z,6.10
2022-09-30T01:30:01.833Z,5.53
2022-09-30T01:32:28.401Z,6.20
2022-09-30T01:34:55.026Z,5.43
2022-09-30T01:37:21.554Z,5.90
2022-09-30T01:39:48.078Z,5.37
2022-09-30T01:42:14.667Z,5.17
2022-09-30T01:44:41.150Z,5.20
2022-09-30T01:47:07.687Z,4.67
2022-09-30T01:49:34.254Z,5.10
2022-09-30T01:52:00.777Z,5.10
2022-09-30T01:54:27.289Z,4.50
2022-09-30T01:56:53.834Z,4.57
2022-09-30T01:59:20.335Z,4.43
2022-09-30T02:01:46.922Z,4.13
2022-09-30T02:04:13.668Z,4.10
2022-09-30T02:06:40.214Z,3.87
2022-09-30T02:09:06.775Z,4.27
2022-09-30T02:11:33.314Z,3.53
2022-09-30T02:13:59.794Z,3.33
2022-09-30T02:16:26.374Z,3.80
2022-09-30T02:18:53.032Z,4.00
2022-09-30T02:21:19.509Z,3.63
2022-09-30T02:23:46.021Z,3.40
2022-09-30T02:26:12.642Z,3.77
2022-09-30T02:28:39.126Z,3.83
2022-09-30T02:31:05.681Z,3.90
2022-09-30T02:33:32.353Z,3.60
2022-09-30T02:35:58.873Z,3.83
2022-09-30T02:38:25.355Z,4.00
2022-09-30T02:40:51.892Z,4.60
2022-09-30T02:43:18.373Z,4.00
2022-09-30T02:45:44.912Z,4.07
2022-09-30T02:48:11.433Z,4.77
2022-09-30T02:50:38.011Z,4.57
2022-09-30T02:53:04.535Z,4.10
2022-09-30T02:55:31.096Z,4.70
2022-09-30T02:57:57.601Z,4.03
2022-09-30T03:00:24.077Z,4.07
2022-09-30T03:02:50.613Z,4.03
2022-09-30T03:05:17.100Z,4.27
2022-09-30T03:07:43.885Z,4.53
2022-09-30T03:10:10.372Z,4.23
2022-09-30T03:12:36.873Z,4.00
2022-09-30T03:15:03.444Z,3.90
2022-09-30T03:17:29.938Z,4.50
2022-09-30T03:19:56.498Z,4.70
2022-09-30T03:22:23.079Z,4.60
2022-09-30T03:24:49.602Z,4.80
2022-09-30T03:27:16.075Z,4.90
2022-09-30T03:29:42.633Z,4.67
2022-09-30T03:32:09.125Z,4.90
2022-09-30T03:34:35.731Z,4.33
2022-09-30T03:37:04.125Z,4.80
2022-09-30T03:39:31.083Z,4.80
2022-09-30T03:41:57.627Z,5.10
2022-09-30T03:44:24.255Z,4.80
2022-09-30T03:46:50.889Z,5.23
2022-09-30T03:49:17.604Z,5.23
2022-09-30T03:51:44.094Z,4.80
2022-09-30T03:54:10.643Z,4.77
2022-09-30T03:56:37.175Z,4.27
2022-09-30T03:59:03.679Z,4.60
2022-09-30T04:01:30.250Z,4.70
2022-09-30T04:03:56.745Z,4.47
2022-09-30T04:06:23.262Z,4.97
2022-09-30T04:08:49.809Z,4.40
2022-09-30T04:11:16.326Z,5.20
2022-09-30T04:13:42.950Z,4.87
2022-09-30T04:16:09.590Z,5.10
2022-09-30T04:18:36.127Z,5.10
2022-09-30T04:21:02.702Z,5.43
2022-09-30T04:23:29.217Z,5.13
2022-09-30T04:25:55.743Z,5.60
2022-09-30T04:28:22.267Z,6.30
2022-09-30T04:30:48.825Z,6.40
2022-09-30T04:33:15.329Z,6.43
2022-09-30T04:35:41.849Z,6.53
2022-09-30T04:38:08.366Z,5.77
2022-09-30T04:40:34.900Z,6.13
2022-09-30T04:43:01.385Z,6.37
2022-09-30T04:45:27.957Z,6.17
2022-09-30T04:47:54.440Z,7.10
2022-09-30T04:50:20.981Z,6.60
2022-09-30T04:52:47.502Z,7.10
2022-09-30T04:55:14.005Z,7.03
2022-09-30T04:57:40.537Z,7.50
2022-09-30T05:00:07.122Z,7.60
2022-09-30T05:02:33.677Z,7.43
2022-09-30T05:05:00.263Z,7.13
2022-09-30T05:07:26.817Z,7.13
2022-09-30T05:09:53.337Z,6.87
2022-09-30T05:12:19.831Z,7.60
2022-09-30T05:14:46.470Z,6.90
2022-09-30T05:17:13.008Z,7.57
2022-09-30T05:19:39.553Z,7.80
2022-09-30T05:22:06.108Z,8.60
2022-09-30T05:24:32.634Z,7.33
2022-09-30T05:26:59.160Z,7.77
2022-09-30T05:29:25.651Z,7.43
2022-09-30T05:31:52.179Z,7.67
2022-09-30T05:34:18.787Z,7.60
2022-09-30T05:36:45.290Z,7.37
2022-09-30T05:39:11.782Z,6.40
2022-09-30T05:41:38.266Z,6.00
2022-09-30T05:44:04.825Z,6.20
2022-09-30T05:46:31.385Z,6.27
2022-09-30T05:48:57.918Z,6.27
2022-09-30T05:51:24.469Z,6.10
2022-09-30T05:53:50.979Z,7.10
2022-09-30T05:56:17.494Z,6.60
2022-09-30T05:58:44.021Z,7.13
2022-09-30T06:01:13.457Z,6.90
2022-09-30T06:03:40.714Z,6.27
2022-09-30T06:06:07.233Z,6.00
2022-09-30T06:08:33.788Z,6.17
2022-09-30T06:11:00.619Z,5.50
2022-09-30T06:13:27.156Z,5.70
2022-09-30T06:15:53.673Z,5.40
2022-09-30T06:18:20.157Z,6.13
2022-09-30T06:20:46.726Z,4.87
2022-09-30T06:23:13.274Z,5.10
2022-09-30T06:25:39.818Z,5.57
2022-09-30T06:28:06.350Z,6.33
2022-09-30T06:30:35.164Z,6.27
2022-09-30T06:33:02.011Z,5.40
2022-09-30T06:35:28.529Z,5.63
2022-09-30T06:37:57.074Z,5.90
2022-09-30T06:40:23.653Z,5.00
2022-09-30T06:42:50.205Z,5.60
2022-09-30T06:45:28.641Z,5.80
2022-09-30T06:48:00.373Z,5.70
2022-09-30T06:50:27.686Z,5.73
2022-09-30T06:52:54.213Z,5.50
2022-09-30T06:55:20.750Z,5.50
2022-09-30T06:57:48.280Z,5.10
2022-09-30T07:00:14.861Z,5.13
2022-09-30T07:02:41.438Z,4.73
2022-09-30T07:05:07.977Z,4.67
2022-09-30T07:07:34.577Z,5.50
2022-09-30T07:10:01.050Z,4.17
2022-09-30T07:12:27.598Z,3.97
2022-09-30T07:14:54.240Z,4.70
2022-09-30T07:17:20.724Z,4.80
2022-09-30T07:19:47.286Z,4.50
2022-09-30T07:22:13.847Z,4.73
2022-09-30T07:24:40.357Z,3.60
2022-09-30T07:27:06.837Z,4.80
2022-09-30T07:29:50.208Z,3.87
2022-09-30T07:32:19.899Z,3.63
2022-09-30T07:34:46.458Z,3.83
2022-09-30T07:37:12.998Z,3.20
2022-09-30T07:39:39.656Z,3.10
2022-09-30T07:42:06.199Z,3.27
2022-09-30T07:44:32.773Z,2.50
2022-09-30T07:46:59.327Z,2.50
2022-09-30T07:49:25.913Z,2.30
2022-09-30T07:51:52.505Z,2.47
2022-09-30T07:54:19.094Z,2.17
2022-09-30T07:57:09.383Z,2.60
2022-09-30T07:59:32.161Z,2.30
2022-09-30T08:01:58.894Z,3.00
2022-09-30T08:04:25.445Z,3.37
2022-09-30T08:06:51.973Z,3.60
2022-09-30T08:09:18.621Z,3.10
2022-09-30T08:11:45.206Z,2.70
2022-09-30T08:14:11.770Z,2.50
2022-09-30T08:16:38.354Z,2.27
2022-09-30T08:19:05.037Z,2.53
2022-09-30T08:21:31.619Z,2.53
2022-09-30T08:23:58.096Z,2.90
2022-09-30T08:26:24.623Z,2.57
2022-09-30T08:28:51.258Z,2.90
2022-09-30T08:31:17.761Z,2.60
2022-09-30T08:33:44.246Z,2.47
2022-09-30T08:36:10.837Z,2.93
2022-09-30T08:38:37.377Z,2.77
2022-09-30T08:41:03.869Z,2.50
2022-09-30T08:43:30.363Z,3.20
2022-09-30T08:45:56.985Z,2.73
2022-09-30T08:48:23.637Z,2.90
2022-09-30T08:50:50.136Z,3.10
2022-09-30T08:53:16.652Z,2.53
2022-09-30T08:55:43.219Z,2.90
2022-09-30T08:58:09.770Z,2.67
2022-09-30T09:00:36.248Z,2.77
2022-09-30T09:03:02.819Z,2.67
2022-09-30T09:05:29.354Z,3.13
2022-09-30T09:07:55.852Z,3.07
2022-09-30T09:10:22.364Z,2.93
2022-09-30T09:12:48.879Z,3.50
2022-09-30T09:15:15.410Z,2.93
2022-09-30T09:17:47.046Z,4.23
2022-09-30T09:20:25.142Z,3.83
2022-09-30T09:22:51.701Z,2.87
2022-09-30T09:25:18.234Z,2.63
2022-09-30T09:27:44.759Z,3.50
2022-09-30T09:30:11.532Z,3.00
2022-09-30T09:32:38.047Z,3.40
2022-09-30T09:35:04.588Z,3.10
2022-09-30T09:37:31.134Z,2.80
2022-09-30T09:40:01.600Z,2.80
2022-09-30T09:42:30.256Z,2.50
2022-09-30T09:44:56.835Z,2.50
2022-09-30T09:47:23.375Z,2.47
2022-09-30T09:49:52.695Z,2.47
2022-09-30T09:52:20.410Z,2.90
2022-09-30T09:54:46.962Z,2.43
2022-09-30T09:57:13.451Z,3.30
2022-09-30T09:59:40.101Z,3.20
2022-09-30T10:02:06.669Z,3.00
2022-09-30T10:04:33.251Z,3.13
2022-09-30T10:06:59.781Z,3.40
2022-09-30T10:09:26.371Z,3.33
2022-09-30T10:11:52.942Z,3.40
2022-09-30T10:14:19.517Z,3.70
2022-09-30T10:16:46.022Z,3.53
2022-09-30T10:19:12.552Z,3.60
2022-09-30T10:21:39.152Z,3.87
2022-09-30T10:24:05.647Z,4.27
2022-09-30T10:26:32.131Z,3.70
2022-09-30T10:28:58.646Z,3.10
2022-09-30T10:31:25.273Z,3.47
2022-09-30T10:33:51.811Z,3.20
2022-09-30T10:36:18.356Z,3.43
2022-09-30T10:38:44.926Z,3.60
2022-09-30T10:41:11.395Z,3.30
2022-09-30T10:43:37.930Z,3.10
2022-09-30T10:46:25.318Z,3.40
2022-09-30T10:48:50.948Z,2.90
2022-09-30T10:51:17.504Z,2.80
2022-09-30T10:53:44.035Z,3.17
2022-09-30T10:56:10.586Z,2.73
2022-09-30T10:58:37.168Z,2.93
2022-09-30T11:01:03.726Z,3.00
2022-09-30T11:03:30.383Z,2.87
2022-09-30T11:05:56.962Z,2.47
2022-09-30T11:08:23.452Z,2.80
2022-09-30T11:10:50.010Z,2.90
2022-09-30T11:13:16.495Z,2.63
2022-09-30T11:15:43.024Z,2.70
2022-09-30T11:18:09.553Z,2.30
2022-09-30T11:20:36.109Z,2.60
2022-09-30T11:23:02.654Z,2.07
2022-09-30T11:25:29.203Z,1.90
2022-09-30T11:27:55.730Z,2.17
2022-09-30T11:30:22.306Z,2.10
2022-09-30T11:32:48.962Z,2.10
2022-09-30T11:35:15.531Z,2.07
2022-09-30T11:37:42.070Z,2.80
2022-09-30T11:40:08.653Z,3.23
2022-09-30T11:42:35.189Z,4.10
2022-09-30T11:45:01.698Z,4.37
2022-09-30T11:47:28.214Z,3.40
2022-09-30T11:49:54.757Z,3.10
2022-09-30T11:52:21.300Z,2.30
2022-09-30T11:54:47.852Z,2.07
2022-09-30T11:57:14.374Z,2.40
2022-09-30T11:59:40.958Z,2.37
2022-09-30T12:02:07.567Z,2.60
2022-09-30T12:04:34.149Z,2.53
2022-09-30T12:07:00.698Z,2.10
2022-09-30T12:09:27.249Z,2.27
2022-09-30T12:11:53.779Z,2.63
2022-09-30T12:14:20.380Z,2.10
2022-09-30T12:16:46.986Z,2.50
2022-09-30T12:19:13.596Z,2.20
2022-09-30T12:21:40.114Z,2.67
2022-09-30T12:24:06.605Z,2.77
2022-09-30T12:26:33.115Z,2.70
2022-09-30T12:29:03.543Z,3.03
2022-09-30T12:31:30.392Z,2.10
2022-09-30T12:33:56.962Z,2.13
2022-09-30T12:36:23.468Z,2.60
2022-09-30T12:38:49.990Z,2.30
2022-09-30T12:41:16.514Z,2.30
2022-09-30T12:43:42.973Z,2.30
2022-09-30T12:46:09.577Z,1.97
2022-09-30T12:48:36.133Z,2.60
2022-09-30T12:51:02.664Z,1.80
2022-09-30T12:53:29.386Z,1.77
2022-09-30T12:55:55.930Z,1.57
2022-09-30T12:58:22.456Z,1.70
2022-09-30T13:00:52.018Z,2.40
2022-09-30T13:03:18.638Z,2.07
2022-09-30T13:05:45.121Z,1.50
2022-09-30T13:08:11.673Z,1.70
2022-09-30T13:10:38.193Z,1.40
2022-09-30T13:13:04.682Z,1.63
2022-09-30T13:15:31.380Z,1.30
2022-09-30T13:17:57.944Z,1.90
2022-09-30T13:20:24.538Z,1.30
2022-09-30T13:22:51.061Z,1.40
2022-09-30T13:25:17.536Z,1.70
2022-09-30T13:27:44.153Z,1.60
2022-09-30T13:30:10.671Z,1.57
2022-09-30T13:32:37.276Z,1.70
2022-09-30T13:35:03.843Z,1.30
2022-09-30T13:37:30.354Z,1.37
2022-09-30T13:39:56.830Z,1.43
2022-09-30T13:42:23.318Z,1.10
2022-09-30T13:44:52.142Z,1.67
2022-09-30T13:47:21.834Z,1.77
2022-09-30T13:49:48.359Z,1.57
2022-09-30T13:52:16.629Z,1.70
2022-09-30T13:54:43.265Z,1.60
2022-09-30T13:57:09.733Z,1.67
2022-09-30T13:59:36.218Z,1.30
2022-09-30T14:02:02.728Z,1.50
2022-09-30T14:04:29.208Z,1.50
2022-09-30T14:06:55.734Z,1.93
2022-09-30T14:09:22.320Z,1.30
2022-09-30T14:11:48.844Z,1.70
2022-09-30T14:14:15.369Z,1.40
2022-09-30T14:16:41.899Z,1.37
2022-09-30T14:19:08.444Z,1.43
2022-09-30T14:21:34.960Z,1.40
2022-09-30T14:24:01.545Z,1.17
2022-09-30T14:26:28.032Z,1.33
2022-09-30T14:28:54.538Z,1.63
2022-09-30T14:31:21.316Z,1.27
2022-09-30T14:33:47.802Z,2.57
2022-09-30T14:36:14.290Z,2.43
2022-09-30T14:38:40.805Z,2.07
2022-09-30T14:41:07.326Z,1.63
2022-09-30T14:43:35.209Z,1.60
2022-09-30T14:46:04.300Z,1.70
2022-09-30T14:48:30.832Z,1.40
2022-09-30T14:50:57.304Z,1.33
2022-09-30T14:53:23.822Z,1.63
2022-09-30T14:55:50.363Z,1.63
2022-09-30T14:58:16.870Z,1.50
2022-09-30T15:00:43.386Z,1.40
2022-09-30T15:03:09.962Z,1.30
2022-09-30T15:05:36.445Z,1.60
2022-09-30T15:08:02.901Z,1.20
2022-09-30T15:10:29.409Z,1.60
2022-09-30T15:12:55.945Z,1.40
2022-09-30T15:15:22.624Z,1.53
2022-09-30T15:17:49.175Z,1.60
2022-09-30T15:20:15.697Z,1.50
2022-09-30T15:22:42.201Z,3.37
2022-09-30T15:25:08.685Z,4.10
2022-09-30T15:27:35.248Z,2.57
2022-09-30T15:30:01.772Z,2.13
2022-09-30T15:32:28.325Z,1.70
2022-09-30T15:34:54.982Z,1.90
2022-09-30T15:37:21.526Z,1.60
2022-09-30T15:39:48.174Z,2.40
2022-09-30T15:42:14.695Z,1.40
2022-09-30T15:44:41.181Z,1.57
2022-09-30T15:47:07.788Z,1.63
2022-09-30T15:49:34.337Z,2.90
2022-09-30T15:52:00.944Z,3.07
2022-09-30T15:54:27.481Z,6.30
2022-09-30T15:56:53.981Z,4.40
2022-09-30T15:59:20.578Z,2.33
2022-09-30T16:01:47.056Z,2.40
2022-09-30T16:04:13.540Z,2.33
2022-09-30T16:06:40.025Z,1.80
2022-09-30T16:09:06.557Z,1.93
2022-09-30T16:11:33.108Z,2.30
2022-09-30T16:13:59.647Z,2.17
2022-09-30T16:16:26.229Z,1.57
2022-09-30T16:18:52.730Z,1.40
2022-09-30T16:21:19.206Z,1.47
2022-09-30T16:23:45.740Z,1.20
2022-09-30T16:26:12.339Z,1.40
2022-09-30T16:28:38.828Z,1.20
2022-09-30T16:31:05.309Z,1.30
2022-09-30T16:33:31.813Z,1.20
2022-09-30T16:35:58.293Z,1.50
2022-09-30T16:38:24.830Z,1.57
2022-09-30T16:40:51.326Z,3.80
2022-09-30T16:43:17.808Z,2.70
2022-09-30T16:45:44.419Z,3.43
2022-09-30T16:48:10.934Z,6.03
2022-09-30T16:50:37.558Z,3.50
2022-09-30T16:53:04.113Z,2.10
2022-09-30T16:55:30.635Z,2.00
2022-09-30T16:57:57.125Z,2.17
2022-09-30T17:00:23.610Z,1.87
2022-09-30T17:02:50.110Z,2.30
2022-09-30T17:05:16.626Z,2.20
2022-09-30T17:07:43.129Z,2.30
2022-09-30T17:10:09.621Z,2.33
2022-09-30T17:12:36.293Z,14.77
2022-09-30T17:15:02.778Z,4.30
2022-09-30T17:17:29.254Z,5.07
2022-09-30T17:19:55.790Z,3.90
2022-09-30T17:22:22.269Z,3.23
2022-09-30T17:24:48.767Z,1.90
2022-09-30T17:27:15.305Z,2.03
2022-09-30T17:29:42.346Z,2.10
2022-09-30T17:32:08.900Z,2.23
2022-09-30T17:34:35.401Z,2.30
2022-09-30T17:37:01.976Z,2.87
2022-09-30T17:39:28.488Z,2.63
2022-09-30T17:41:55.010Z,2.43
2022-09-30T17:44:21.504Z,2.20
2022-09-30T17:46:47.985Z,3.30
2022-09-30T17:49:14.452Z,4.00
2022-09-30T17:51:41.094Z,3.40
2022-09-30T17:54:07.814Z,5.20
2022-09-30T17:56:34.301Z,8.70
2022-09-30T17:59:00.776Z,9.57
2022-09-30T18:01:27.338Z,8.47
2022-09-30T18:03:53.917Z,6.47
2022-09-30T18:06:20.417Z,7.33
2022-09-30T18:08:46.976Z,7.87
2022-09-30T18:11:13.741Z,6.13
2022-09-30T18:13:40.301Z,5.67
2022-09-30T18:16:07.004Z,5.13
2022-09-30T18:18:33.677Z,5.03
2022-09-30T18:21:02.228Z,5.00
2022-09-30T18:23:28.722Z,4.97
2022-09-30T18:25:55.262Z,4.80
2022-09-30T18:28:21.859Z,4.87
2022-09-30T18:30:50.501Z,4.20
2022-09-30T18:33:17.054Z,4.73
2022-09-30T18:35:43.616Z,5.40
2022-09-30T18:38:10.127Z,4.53
2022-09-30T18:40:36.670Z,4.07
2022-09-30T18:43:03.147Z,4.13
2022-09-30T18:45:29.719Z,3.80
2022-09-30T18:47:56.260Z,4.80
2022-09-30T18:50:22.749Z,4.30
2022-09-30T18:52:49.380Z,4.00
2022-09-30T18:55:15.961Z,4.27
2022-09-30T18:57:42.440Z,4.70
2022-09-30T19:00:09.016Z,6.77
2022-09-30T19:02:35.646Z,5.93
2022-09-30T19:05:02.123Z,5.17
2022-09-30T19:07:28.628Z,5.30
2022-09-30T19:09:55.170Z,5.00
2022-09-30T19:12:21.673Z,4.73
2022-09-30T19:14:48.211Z,4.47
2022-09-30T19:17:14.823Z,4.47
2022-09-30T19:19:41.300Z,4.43
2022-09-30T19:22:07.892Z,4.70
2022-09-30T19:24:34.466Z,4.10
2022-09-30T19:27:01.121Z,5.30
2022-09-30T19:29:27.642Z,6.10
2022-09-30T19:31:54.175Z,7.13
2022-09-30T19:34:30.301Z,7.20
2022-09-30T19:36:58.814Z,7.10
2022-09-30T19:39:28.318Z,7.90
2022-09-30T19:41:58.164Z,6.40
2022-09-30T19:44:26.833Z,6.07
2022-09-30T19:46:53.313Z,8.03
2022-09-30T19:49:19.845Z,8.33
2022-09-30T19:51:46.354Z,7.83
2022-09-30T19:54:12.883Z,5.33
2022-09-30T19:56:39.415Z,6.60
2022-09-30T19:59:05.929Z,6.40
2022-09-30T20:01:32.626Z,7.00
2022-09-30T20:03:59.341Z,7.83
2022-09-30T20:06:25.844Z,7.57
2022-09-30T20:08:52.372Z,7.50
2022-09-30T20:11:18.962Z,12.50
2022-09-30T20:13:45.427Z,15.30
2022-09-30T20:16:11.915Z,13.13
2022-09-30T20:18:38.463Z,8.17
2022-09-30T20:21:04.965Z,7.80
2022-09-30T20:23:31.458Z,7.17
2022-09-30T20:25:57.986Z,7.70
2022-09-30T20:28:25.654Z,7.37
2022-09-30T20:30:52.178Z,5.80
2022-09-30T20:33:18.658Z,9.20
2022-09-30T20:35:45.142Z,14.60
2022-09-30T20:38:11.624Z,14.10
2022-09-30T20:40:38.115Z,14.13
2022-09-30T20:43:04.596Z,11.43
2022-09-30T20:45:31.102Z,12.30
2022-09-30T20:47:57.631Z,9.40
2022-09-30T20:50:24.102Z,6.57
2022-09-30T20:52:50.594Z,7.40
2022-09-30T20:55:17.063Z,6.93
2022-09-30T20:57:43.568Z,6.47
2022-09-30T21:00:10.041Z,5.40
2022-09-30T21:02:36.584Z,4.80
2022-09-30T21:05:03.181Z,5.20
2022-09-30T21:07:29.725Z,4.17
2022-09-30T21:09:56.211Z,4.20
2022-09-30T21:12:22.702Z,3.77
2022-09-30T21:14:49.366Z,4.20
2022-09-30T21:17:15.867Z,4.20
2022-09-30T21:19:42.341Z,4.00
2022-09-30T21:22:08.874Z,6.73
2022-09-30T21:24:35.349Z,9.20
2022-09-30T21:27:01.894Z,12.53
2022-09-30T21:29:28.446Z,8.93
2022-09-30T21:31:54.988Z,7.80
2022-09-30T21:34:21.558Z,7.63
2022-09-30T21:36:48.117Z,7.10
2022-09-30T21:39:14.649Z,10.13
2022-09-30T21:41:41.135Z,15.47
2022-09-30T21:44:07.611Z,19.30
2022-09-30T21:46:34.087Z,23.73
2022-09-30T21:49:00.595Z,27.47
2022-09-30T21:51:27.060Z,22.67
2022-09-30T21:53:53.524Z,19.27
2022-09-30T21:56:20.024Z,14.67
2022-09-30T21:58:46.639Z,9.77
2022-09-30T22:01:13.168Z,10.70
2022-09-30T22:03:39.689Z,10.20
2022-09-30T22:06:06.221Z,8.73
2022-09-30T22:08:32.779Z,6.67
2022-09-30T22:10:59.261Z,6.70
2022-09-30T22:13:25.763Z,11.97
2022-09-30T22:15:52.227Z,7.93
2022-09-30T22:18:18.732Z,10.03
2022-09-30T22:20:45.255Z,11.27
2022-09-30T22:23:11.732Z,11.90
2022-09-30T22:25:38.269Z,12.07
2022-09-30T22:28:04.894Z,10.27
2022-09-30T22:30:31.432Z,10.17
2022-09-30T22:32:57.908Z,11.33
2022-09-30T22:35:24.377Z,9.17
2022-09-30T22:37:50.861Z,10.23
2022-09-30T22:40:17.345Z,9.50
2022-09-30T22:42:43.883Z,9.63
2022-09-30T22:45:10.390Z,9.10
2022-09-30T22:47:36.918Z,8.23
2022-09-30T22:50:03.447Z,7.70
2022-09-30T22:52:29.935Z,6.07
2022-09-30T22:54:56.467Z,5.83
2022-09-30T22:57:22.981Z,5.40
2022-09-30T22:59:49.521Z,4.37
2022-09-30T23:02:16.083Z,4.40
2022-09-30T23:04:42.658Z,4.03
2022-09-30T23:07:09.170Z,3.97
2022-09-30T23:09:35.637Z,4.00
2022-09-30T23:12:02.186Z,3.67
2022-09-30T23:14:28.649Z,3.67
2022-09-30T23:16:55.212Z,3.70
2022-09-30T23:19:21.782Z,3.47
2022-09-30T23:21:48.279Z,3.03
2022-09-30T23:24:14.800Z,3.10
2022-09-30T23:26:41.484Z,4.40
2022-09-30T23:29:08.115Z,4.37
2022-09-30T23:31:34.951Z,5.43
2022-09-30T23:34:01.692Z,4.10
2022-09-30T23:36:28.174Z,4.43
2022-09-30T23:38:54.697Z,3.83
2022-09-30T23:41:21.192Z,4.37
2022-09-30T23:43:47.671Z,4.90
2022-09-30T23:46:14.197Z,5.40
2022-09-30T23:48:40.724Z,4.53
2022-09-30T23:51:07.248Z,3.50
2022-09-30T23:53:33.721Z,3.47
2022-09-30T23:56:00.225Z,4.00
2022-09-30T23:58:26.770Z,3.93
